Time;durP1;ratioP1;P1;durP2;ratioP2;P2;SDS_P1;SDS_P2;PMS_P1;PMS_P2;Temp;Humidity;BMP_temperature;BMP_pressure;BME280_temperature;BME280_humidity;BME280_pressure;Samples;Min_cycle;Max_cycle;Signal;HPM_P1;HPM_P2
2021/01/05 00:00:52;;;;;;;15.18;4.97;;;24.70;94.70;;;;;;5057245;28;20418;-80
2021/01/05 00:03:19;;;;;;;13.73;4.50;;;24.80;93.90;;;;;;5067541;28;20382;-85
2021/01/05 00:05:46;;;;;;;11.43;4.43;;;25.10;94.10;;;;;;5071454;28;20377;-84
2021/01/05 00:08:13;;;;;;;8.38;2.75;;;25.20;92.80;;;;;;5065459;28;20481;-83
2021/01/05 00:10:40;;;;;;;25.88;5.45;;;25.20;92.40;;;;;;5066822;28;20370;-80
2021/01/05 00:13:07;;;;;;;24.17;7.35;;;25.40;93.50;;;;;;5071365;28;20451;-80
2021/01/05 00:15:34;;;;;;;27.67;7.18;;;25.20;94.10;;;;;;5054329;28;20871;-79
2021/01/05 00:18:01;;;;;;;32.55;7.57;;;25.10;91.40;;;;;;5058797;28;20449;-80
2021/01/05 00:20:31;;;;;;;16.20;4.80;;;25.10;92.00;;;;;;5070947;28;20928;-81
2021/01/05 00:22:59;;;;;;;25.77;6.25;;;24.80;93.30;;;;;;5056585;28;20392;-81
2021/01/05 00:25:27;;;;;;;30.08;8.23;;;24.50;94.40;;;;;;5063740;28;20378;-81
2021/01/05 00:27:54;;;;;;;5.18;2.30;;;24.70;96.30;;;;;;5057480;28;20507;-81
2021/01/05 00:30:25;;;;;;;42.07;12.07;;;25.70;92.70;;;;;;5063094;28;20394;-83
2021/01/05 00:32:53;;;;;;;30.80;10.02;;;26.50;93.20;;;;;;5070545;28;20416;-83
2021/01/05 00:35:32;;;;;;;13.18;4.22;;;27.10;92.20;;;;;;5051549;28;21180;-82
2021/01/05 00:38:00;;;;;;;1.70;1.50;;;27.80;89.10;;;;;;5069982;28;20396;-81
2021/01/05 00:40:27;;;;;;;5.20;1.27;;;28.00;80.10;;;;;;5070358;28;20806;-81
2021/01/05 00:42:55;;;;;;;4.43;1.70;;;28.30;81.20;;;;;;5070339;28;20868;-81
2021/01/05 00:45:34;;;;;;;22.40;7.63;;;28.70;78.40;;;;;;5066714;28;20433;-82
2021/01/05 00:48:02;;;;;;;5.10;2.00;;;28.90;80.60;;;;;;5067285;28;20907;-83
2021/01/05 00:50:29;;;;;;;5.55;2.50;;;29.10;79.70;;;;;;5045382;28;20815;-81
2021/01/05 00:52:56;;;;;;;9.00;3.13;;;29.10;81.90;;;;;;5068901;28;20414;-81
2021/01/05 00:55:23;;;;;;;22.80;5.78;;;29.30;76.40;;;;;;5067856;28;20402;-82
2021/01/05 00:57:50;;;;;;;1.75;1.02;;;28.90;67.30;;;;;;5068385;28;20876;-83
2021/01/05 01:00:24;;;;;;;1.70;1.20;;;29.00;74.60;;;;;;5065431;28;20504;-83
2021/01/05 01:02:53;;;;;;;81.30;20.67;;;28.70;69.20;;;;;;5066433;28;20463;-83
2021/01/05 01:05:21;;;;;;;7.38;2.45;;;28.80;70.00;;;;;;5069785;28;20394;-83
2021/01/05 01:07:49;;;;;;;1.67;1.05;;;28.90;68.90;;;;;;5067263;28;20445;-84
2021/01/05 01:10:17;;;;;;;3.35;1.23;;;29.10;67.50;;;;;;5069764;28;20390;-84
2021/01/05 01:12:44;;;;;;;4.03;1.77;;;28.40;71.50;;;;;;5059138;28;20394;-84
2021/01/05 01:15:13;;;;;;;2.25;1.63;;;27.70;82.10;;;;;;5069038;28;20406;-84
2021/01/05 01:17:40;;;;;;;1.47;1.30;;;27.50;84.40;;;;;;5067634;28;20480;-84
2021/01/05 01:20:07;;;;;;;2.33;1.40;;;27.40;82.20;;;;;;5066673;28;20442;-82
2021/01/05 01:22:34;;;;;;;2.70;1.20;;;27.50;83.90;;;;;;5061380;28;20388;-84
2021/01/05 01:25:02;;;;;;;1.65;0.85;;;27.40;79.20;;;;;;5064844;28;20892;-83
2021/01/05 01:27:29;;;;;;;1.40;1.00;;;27.10;70.20;;;;;;5067871;28;20824;-83
2021/01/05 01:29:56;;;;;;;2.65;1.00;;;26.70;73.40;;;;;;5066264;28;20390;-83
2021/01/05 01:32:23;;;;;;;4.10;1.20;;;26.50;71.40;;;;;;5068199;28;20497;-83
2021/01/05 01:34:50;;;;;;;3.83;1.20;;;26.30;72.90;;;;;;5069754;28;20443;-82
2021/01/05 01:37:18;;;;;;;3.13;1.20;;;26.40;79.30;;;;;;5069678;28;20378;-83
2021/01/05 01:39:47;;;;;;;3.20;1.35;;;26.70;84.90;;;;;;5068188;28;20505;-83
2021/01/05 01:42:16;;;;;;;1.80;0.90;;;27.00;77.90;;;;;;5068848;28;20796;-83
2021/01/05 01:44:45;;;;;;;1.95;1.15;;;27.10;78.20;;;;;;5068577;28;20520;-83
2021/01/05 01:47:36;;;;;;;2.80;1.27;;;26.80;81.80;;;;;;5068564;28;20443;-84
2021/01/05 01:50:21;;;;;;;1.35;1.23;;;26.50;80.00;;;;;;5069318;28;20385;-84
2021/01/05 01:53:19;;;;;;;2.55;1.08;;;26.60;82.50;;;;;;5069097;28;20485;-84
2021/01/05 01:56:11;;;;;;;1.80;0.80;;;27.00;78.00;;;;;;5067940;28;20872;-83
2021/01/05 01:58:41;;;;;;;0.88;0.80;;;27.40;78.30;;;;;;5068789;28;20496;-84
2021/01/05 02:01:40;;;;;;;1.88;0.90;;;27.30;73.20;;;;;;5070761;28;20404;-84
2021/01/05 02:04:44;;;;;;;1.58;1.00;;;27.10;76.40;;;;;;5067671;28;20408;-84
2021/01/05 02:07:11;;;;;;;0.80;0.70;;;27.10;74.10;;;;;;5069175;28;20409;-83
2021/01/05 02:09:49;;;;;;;2.30;1.02;;;27.10;71.00;;;;;;5067011;28;20401;-84
2021/01/05 02:12:39;;;;;;;5.97;1.20;;;27.00;74.40;;;;;;5064401;28;20412;-84
2021/01/05 02:15:26;;;;;;;2.10;0.90;;;27.10;78.60;;;;;;5062757;28;20408;-83
2021/01/05 02:18:12;;;;;;;3.08;0.95;;;27.50;81.40;;;;;;5067225;28;20938;-83
2021/01/05 02:21:01;;;;;;;1.60;0.80;;;27.70;70.70;;;;;;5069120;28;20381;-84
2021/01/05 02:24:04;;;;;;;1.70;0.80;;;27.70;76.00;;;;;;5069101;28;20386;-84
2021/01/05 02:26:51;;;;;;;2.30;0.90;;;27.90;77.20;;;;;;5069124;28;20427;-84
2021/01/05 02:29:24;;;;;;;1.40;0.65;;;28.10;76.00;;;;;;5069018;28;20382;-82
2021/01/05 02:32:06;;;;;;;1.43;0.97;;;28.10;71.80;;;;;;5056110;28;20389;-86
2021/01/05 02:34:46;;;;;;;2.35;0.80;;;28.10;69.40;;;;;;5067615;28;20447;-87
2021/01/05 02:37:42;;;;;;;3.08;0.82;;;28.20;68.40;;;;;;5067749;28;20440;-83
2021/01/05 02:40:21;;;;;;;2.70;0.82;;;28.20;71.40;;;;;;5071248;28;20405;-86
2021/01/05 02:43:32;;;;;;;1.55;0.80;;;28.20;72.20;;;;;;5066960;28;20398;-85
2021/01/05 02:46:49;;;;;;;1.43;0.70;;;28.20;71.70;;;;;;5032817;28;20570;-85
2021/01/05 02:49:36;;;;;;;1.30;0.98;;;28.20;68.90;;;;;;5015346;28;20429;-86
2021/01/05 02:52:36;;;;;;;1.83;0.82;;;28.10;72.30;;;;;;5055501;28;20473;-86
2021/01/05 02:55:57;;;;;;;1.00;0.80;;;28.00;70.20;;;;;;5049552;28;20379;-87
2021/01/05 02:58:50;;;;;;;2.67;0.90;;;27.60;69.70;;;;;;5009654;28;20449;-86
2021/01/05 03:01:54;;;;;;;2.05;0.70;;;27.80;71.00;;;;;;5055416;28;20382;-85
2021/01/05 03:04:21;;;;;;;2.55;0.70;;;28.00;75.80;;;;;;5070536;28;20378;-84
2021/01/05 03:06:58;;;;;;;2.28;0.85;;;28.30;69.40;;;;;;5067332;28;20385;-86
2021/01/05 03:09:57;;;;;;;2.50;0.80;;;28.50;69.90;;;;;;5065207;28;20476;-86
2021/01/05 03:13:04;;;;;;;3.63;0.68;;;28.50;67.20;;;;;;5066057;28;20493;-87
2021/01/05 03:15:45;;;;;;;3.08;0.80;;;28.40;65.90;;;;;;5052464;28;20382;-86
2021/01/05 03:18:43;;;;;;;2.25;0.90;;;27.90;70.30;;;;;;5068269;28;20377;-86
2021/01/05 03:21:29;;;;;;;1.08;0.70;;;27.50;70.00;;;;;;5068333;28;20398;-86
2021/01/05 03:23:58;;;;;;;2.45;1.00;;;27.30;68.70;;;;;;5068096;28;21162;-85
2021/01/05 03:26:39;;;;;;;1.92;0.80;;;27.20;72.40;;;;;;5064953;28;20395;-85
2021/01/05 03:29:08;;;;;;;1.20;0.70;;;27.10;72.40;;;;;;5065034;28;20953;-85
2021/01/05 03:31:46;;;;;;;3.25;0.63;;;27.20;75.00;;;;;;5066895;28;20394;-85
2021/01/05 03:34:14;;;;;;;2.20;0.93;;;27.20;76.10;;;;;;5067796;28;20405;-85
2021/01/05 03:36:41;;;;;;;2.40;0.88;;;27.50;74.20;;;;;;5068209;28;20964;-85
2021/01/05 03:39:09;;;;;;;3.28;0.70;;;27.70;70.00;;;;;;5067697;28;20410;-85
2021/01/05 03:41:36;;;;;;;1.30;0.70;;;27.50;69.50;;;;;;5067836;28;20949;-85
2021/01/05 03:44:04;;;;;;;2.15;0.70;;;27.50;71.00;;;;;;5069236;28;20374;-85
2021/01/05 03:46:31;;;;;;;1.85;0.80;;;27.50;69.00;;;;;;5071955;28;20974;-85
2021/01/05 03:48:58;;;;;;;1.70;1.10;;;27.40;71.60;;;;;;5064892;28;20422;-84
2021/01/05 03:51:25;;;;;;;2.20;0.90;;;27.30;71.70;;;;;;5071409;28;20763;-85
2021/01/05 03:53:52;;;;;;;1.88;0.80;;;27.20;74.20;;;;;;5062065;28;20496;-85
2021/01/05 03:56:19;;;;;;;1.40;0.70;;;27.10;75.80;;;;;;5071865;28;20445;-85
2021/01/05 03:58:46;;;;;;;0.90;0.70;;;27.10;71.30;;;;;;5070311;28;20902;-84
2021/01/05 04:01:13;;;;;;;3.25;0.85;;;27.20;68.50;;;;;;5052615;28;20379;-85
2021/01/05 04:03:41;;;;;;;0.97;0.70;;;27.40;72.60;;;;;;5071176;28;20410;-85
2021/01/05 04:06:08;;;;;;;7.35;1.30;;;27.80;70.30;;;;;;5071344;28;20374;-85
2021/01/05 04:08:36;;;;;;;1.47;0.80;;;28.10;70.80;;;;;;5059407;28;20399;-85
2021/01/05 04:11:04;;;;;;;1.50;0.88;;;28.50;69.90;;;;;;5067824;28;20896;-85
2021/01/05 04:13:31;;;;;;;5.32;1.60;;;28.80;71.00;;;;;;5061396;28;20501;-84
2021/01/05 04:15:58;;;;;;;4.95;1.70;;;28.90;79.10;;;;;;5066147;28;20429;-84
2021/01/05 04:18:25;;;;;;;2.97;1.50;;;28.70;76.00;;;;;;5069400;28;20805;-85
2021/01/05 04:20:52;;;;;;;3.95;2.03;;;28.20;76.50;;;;;;5086580;28;20380;-84
2021/01/05 04:23:19;;;;;;;4.70;1.80;;;27.40;81.10;;;;;;5075589;28;21111;-83
2021/01/05 04:25:46;;;;;;;3.17;1.73;;;26.80;83.60;;;;;;5064018;28;20397;-82
2021/01/05 04:28:13;;;;;;;6.07;1.70;;;26.40;85.40;;;;;;5069045;28;20493;-83
2021/01/05 04:30:40;;;;;;;5.18;1.90;;;26.20;87.20;;;;;;5070843;28;21186;-84
2021/01/05 04:33:10;;;;;;;3.20;1.40;;;26.00;87.30;;;;;;5060314;28;20414;-84
2021/01/05 04:35:37;;;;;;;5.32;1.70;;;26.00;86.70;;;;;;5050433;28;21026;-84
2021/01/05 04:38:06;;;;;;;4.60;1.80;;;26.00;88.00;;;;;;5059515;28;20737;-84
2021/01/05 04:40:43;;;;;;;5.45;1.77;;;26.00;87.80;;;;;;5063857;28;20406;-84
2021/01/05 04:43:44;;;;;;;5.80;1.50;;;26.00;88.40;;;;;;5061324;28;20469;-83
2021/01/05 04:46:20;;;;;;;6.60;2.03;;;26.00;88.60;;;;;;5070649;28;20447;-85
2021/01/05 04:49:08;;;;;;;4.20;1.80;;;25.90;88.70;;;;;;5069903;28;20405;-85
2021/01/05 04:51:50;;;;;;;4.05;1.63;;;25.80;88.70;;;;;;5053796;28;20874;-83
2021/01/05 04:54:27;;;;;;;7.05;2.20;;;25.60;88.90;;;;;;5068523;28;20406;-83
2021/01/05 04:57:03;;;;;;;6.43;1.98;;;25.40;90.00;;;;;;5069501;28;20379;-83
2021/01/05 04:59:47;;;;;;;3.50;1.85;;;25.30;90.60;;;;;;5070397;28;20366;-83
2021/01/05 05:02:59;;;;;;;5.32;1.90;;;25.10;90.90;;;;;;5070017;28;20371;-83
2021/01/05 05:05:31;;;;;;;7.45;2.28;;;25.10;91.40;;;;;;5062712;28;20390;-83
2021/01/05 05:08:11;;;;;;;9.30;2.28;;;25.00;91.10;;;;;;5070062;28;20370;-83
2021/01/05 05:10:56;;;;;;;6.85;2.00;;;24.90;91.40;;;;;;5070206;28;20378;-82
2021/01/05 05:13:25;;;;;;;3.87;2.10;;;24.90;91.60;;;;;;5070269;28;20460;-83
2021/01/05 05:15:55;;;;;;;4.33;1.90;;;25.00;91.50;;;;;;5070276;28;20423;-83
2021/01/05 05:18:41;;;;;;;3.65;1.77;;;25.00;91.50;;;;;;5070016;28;20469;-82
2021/01/05 05:21:29;;;;;;;7.25;1.75;;;25.20;91.40;;;;;;5068170;28;20370;-82
2021/01/05 05:24:16;;;;;;;3.95;1.85;;;25.50;91.20;;;;;;5070105;28;20396;-84
2021/01/05 05:26:57;;;;;;;6.63;1.90;;;25.70;89.90;;;;;;5068772;28;20386;-84
2021/01/05 05:29:38;;;;;;;4.75;1.83;;;25.80;90.00;;;;;;5068742;28;20762;-84
2021/01/05 05:32:31;;;;;;;4.72;1.80;;;25.80;89.10;;;;;;5067265;28;20454;-84
2021/01/05 05:35:15;;;;;;;2.95;1.60;;;25.80;90.00;;;;;;5052660;28;20394;-83
2021/01/05 05:38:03;;;;;;;2.88;1.30;;;25.90;88.60;;;;;;5069989;28;20456;-84
2021/01/05 05:40:57;;;;;;;5.47;1.77;;;25.80;85.70;;;;;;5050829;28;20801;-83
2021/01/05 05:43:43;;;;;;;3.38;1.60;;;25.80;87.30;;;;;;5045149;28;20389;-83
2021/01/05 05:46:20;;;;;;;3.75;1.60;;;25.80;86.30;;;;;;5069635;28;20380;-84
2021/01/05 05:49:24;;;;;;;5.90;1.60;;;25.90;87.60;;;;;;5052133;28;20470;-83
2021/01/05 05:51:54;;;;;;;3.38;1.65;;;25.80;88.10;;;;;;5051139;28;20454;-84
2021/01/05 05:54:23;;;;;;;2.67;1.60;;;25.70;88.50;;;;;;5049360;28;20505;-82
2021/01/05 05:56:53;;;;;;;6.60;1.83;;;25.70;87.90;;;;;;5053046;28;20511;-82
2021/01/05 05:59:35;;;;;;;4.63;1.65;;;25.70;88.90;;;;;;5064033;28;20770;-82
2021/01/05 06:02:02;;;;;;;4.53;1.70;;;25.90;90.00;;;;;;5063993;28;20396;-82
2021/01/05 06:04:33;;;;;;;4.80;1.77;;;26.00;89.70;;;;;;5066884;28;20429;-84
2021/01/05 06:07:02;;;;;;;4.53;1.80;;;26.00;89.10;;;;;;5056587;28;20430;-83
2021/01/05 06:09:28;;;;;;;3.80;1.70;;;26.00;89.90;;;;;;5059448;28;20565;-83
2021/01/05 06:11:56;;;;;;;3.42;2.00;;;26.10;90.40;;;;;;5064089;28;20382;-83
2021/01/05 06:14:23;;;;;;;4.47;2.10;;;26.20;90.20;;;;;;5056152;28;20793;-83
2021/01/05 06:16:50;;;;;;;6.25;2.15;;;26.30;89.70;;;;;;5053203;28;20388;-85
2021/01/05 06:19:17;;;;;;;4.93;1.70;;;26.40;90.00;;;;;;5067343;28;20846;-85
2021/01/05 06:21:44;;;;;;;6.80;1.90;;;26.50;89.70;;;;;;5059214;28;20388;-86
2021/01/05 06:24:12;;;;;;;3.90;1.90;;;26.50;89.40;;;;;;5063625;28;20384;-83
2021/01/05 06:26:41;;;;;;;6.32;2.22;;;26.40;88.80;;;;;;5055679;28;20618;-86
2021/01/05 06:29:08;;;;;;;6.45;2.17;;;26.40;88.60;;;;;;5042029;28;20402;-84
2021/01/05 06:31:35;;;;;;;4.30;1.90;;;26.30;89.30;;;;;;5055328;28;20394;-86
2021/01/05 06:34:02;;;;;;;5.95;2.17;;;26.20;90.00;;;;;;5041247;28;20419;-88
2021/01/05 06:36:29;;;;;;;5.00;1.85;;;26.30;90.00;;;;;;5040488;28;20898;-85
2021/01/05 06:38:56;;;;;;;6.82;2.25;;;26.20;90.00;;;;;;5064532;28;20380;-85
2021/01/05 06:41:23;;;;;;;5.10;2.20;;;26.20;89.10;;;;;;5057808;28;20400;-85
2021/01/05 06:43:50;;;;;;;5.00;2.10;;;26.20;90.20;;;;;;5057859;28;20384;-83
2021/01/05 06:46:17;;;;;;;5.07;2.13;;;26.20;90.50;;;;;;5066540;28;20386;-85
2021/01/05 06:48:44;;;;;;;6.18;2.28;;;26.20;90.70;;;;;;5061899;28;20437;-85
2021/01/05 06:51:11;;;;;;;4.93;2.10;;;26.20;89.50;;;;;;5064900;28;20389;-84
2021/01/05 06:53:38;;;;;;;3.63;1.73;;;26.00;89.40;;;;;;5062215;28;20410;-84
2021/01/05 06:56:05;;;;;;;4.97;2.00;;;26.00;89.90;;;;;;5069103;28;20370;-86
2021/01/05 06:58:32;;;;;;;4.03;1.77;;;25.90;89.40;;;;;;5068732;28;20380;-83
2021/01/05 07:00:59;;;;;;;4.03;1.70;;;25.80;89.40;;;;;;5048950;28;20399;-85
2021/01/05 07:03:26;;;;;;;6.68;1.67;;;25.70;90.30;;;;;;5058989;28;20386;-86
2021/01/05 07:05:53;;;;;;;4.50;1.98;;;25.60;89.80;;;;;;5060904;28;20525;-86
2021/01/05 07:08:21;;;;;;;3.47;1.95;;;25.40;90.20;;;;;;5060562;28;20390;-84
2021/01/05 07:10:50;;;;;;;5.23;2.20;;;25.30;89.60;;;;;;5066684;28;20426;-84
2021/01/05 07:13:17;;;;;;;4.13;2.05;;;25.20;90.20;;;;;;5060650;28;20416;-83
2021/01/05 07:15:45;;;;;;;5.10;2.00;;;25.20;90.80;;;;;;5060508;28;20410;-85
2021/01/05 07:18:12;;;;;;;4.20;2.45;;;25.10;91.00;;;;;;5068721;28;20488;-85
2021/01/05 07:20:40;;;;;;;4.25;2.30;;;25.20;91.10;;;;;;5072597;28;20427;-83
2021/01/05 07:23:07;;;;;;;3.53;1.80;;;25.10;91.20;;;;;;5069105;28;20904;-84
2021/01/05 07:25:34;;;;;;;2.90;1.85;;;25.00;90.70;;;;;;5061781;28;20383;-84
2021/01/05 07:28:01;;;;;;;3.47;1.77;;;24.80;88.70;;;;;;5071576;28;20784;-83
2021/01/05 07:30:28;;;;;;;2.50;1.73;;;24.60;89.00;;;;;;5068183;28;20387;-85
2021/01/05 07:32:55;;;;;;;3.17;1.87;;;24.50;89.00;;;;;;5066406;28;20484;-84
2021/01/05 07:35:22;;;;;;;2.77;1.87;;;24.40;89.60;;;;;;5057953;28;20954;-84
2021/01/05 07:37:49;;;;;;;4.10;1.60;;;24.30;89.10;;;;;;5070722;28;20974;-85
2021/01/05 07:40:17;;;;;;;3.97;1.53;;;24.30;89.00;;;;;;5064151;28;20387;-84
2021/01/05 07:42:44;;;;;;;6.32;1.90;;;24.20;90.00;;;;;;5053683;28;20875;-83
2021/01/05 07:45:19;;;;;;;6.55;2.67;;;24.10;90.70;;;;;;5070613;28;20390;-82
2021/01/05 07:47:47;;;;;;;10.60;3.65;;;24.00;92.40;;;;;;5072480;28;20455;-83
2021/01/05 07:50:23;;;;;;;6.75;3.25;;;23.60;95.20;;;;;;5071405;28;20393;-82
2021/01/05 07:52:51;;;;;;;6.10;2.90;;;23.20;96.90;;;;;;5067546;28;20413;-82
2021/01/05 07:55:27;;;;;;;6.68;3.40;;;22.80;98.00;;;;;;5071991;28;20374;-82
2021/01/05 07:57:55;;;;;;;7.00;3.60;;;22.60;99.50;;;;;;5054058;28;20396;-82
2021/01/05 08:00:27;;;;;;;7.20;3.63;;;22.30;99.90;;;;;;5064114;28;20397;-81
2021/01/05 08:02:56;;;;;;;7.07;3.33;;;22.20;99.90;;;;;;5069512;28;20788;-80
2021/01/05 08:05:26;;;;;;;9.40;3.85;;;22.10;99.90;;;;;;5070117;28;20384;-80
2021/01/05 08:07:55;;;;;;;9.23;4.20;;;22.30;99.90;;;;;;5064598;28;20937;-81
2021/01/05 08:10:26;;;;;;;13.88;4.80;;;22.50;99.90;;;;;;5066309;28;20462;-81
2021/01/05 08:12:53;;;;;;;7.47;4.38;;;22.50;99.90;;;;;;5061903;28;20389;-83
2021/01/05 08:15:23;;;;;;;10.20;4.97;;;22.40;99.90;;;;;;5054726;28;20398;-82
2021/01/05 08:17:51;;;;;;;9.63;4.30;;;22.30;99.90;;;;;;5066545;28;21085;-82
2021/01/05 08:20:20;;;;;;;10.48;5.00;;;22.30;99.90;;;;;;5058053;28;20409;-81
2021/01/05 08:22:51;;;;;;;11.38;5.88;;;22.20;99.90;;;;;;5079562;28;20456;-82
2021/01/05 08:25:20;;;;;;;14.00;6.43;;;22.20;99.90;;;;;;5059941;28;20398;-83
2021/01/05 08:27:49;;;;;;;7.43;5.10;;;22.20;99.90;;;;;;5065394;28;20880;-83
2021/01/05 08:30:18;;;;;;;10.18;5.22;;;22.10;99.90;;;;;;5066342;28;20379;-84
2021/01/05 08:32:46;;;;;;;10.93;4.65;;;22.10;99.90;;;;;;5064183;28;20402;-83
2021/01/05 08:35:17;;;;;;;6.30;4.38;;;22.00;99.90;;;;;;5067040;28;20397;-83
2021/01/05 08:37:44;;;;;;;5.32;4.20;;;22.00;99.90;;;;;;5067788;28;20390;-82
2021/01/05 08:40:18;;;;;;;9.85;5.10;;;22.00;99.90;;;;;;5064460;28;20934;-84
2021/01/05 08:42:46;;;;;;;9.82;4.60;;;22.00;99.90;;;;;;5061626;28;20516;-83
2021/01/05 08:45:16;;;;;;;8.48;4.63;;;22.00;99.90;;;;;;5066620;28;20426;-84
2021/01/05 08:47:43;;;;;;;10.13;4.63;;;21.90;99.90;;;;;;5063116;28;20492;-84
2021/01/05 08:50:14;;;;;;;7.72;4.75;;;21.80;99.90;;;;;;5056719;28;20465;-83
2021/01/05 08:52:41;;;;;;;8.02;4.63;;;21.70;99.90;;;;;;5051208;28;20487;-84
2021/01/05 08:55:08;;;;;;;8.88;5.10;;;21.60;99.90;;;;;;5077464;28;20463;-83
2021/01/05 08:57:35;;;;;;;9.88;5.65;;;21.60;99.90;;;;;;5073929;28;20504;-84
2021/01/05 09:00:05;;;;;;;6.88;5.35;;;21.60;99.90;;;;;;5067354;28;20944;-84
2021/01/05 09:02:32;;;;;;;10.02;5.65;;;21.50;99.90;;;;;;5063382;28;20405;-87
2021/01/05 09:04:59;;;;;;;7.45;5.22;;;21.50;99.90;;;;;;5064418;28;20866;-85
2021/01/05 09:07:26;;;;;;;6.97;4.80;;;21.40;99.90;;;;;;5060095;28;20564;-85
2021/01/05 09:09:53;;;;;;;9.17;4.93;;;21.40;99.90;;;;;;5051072;28;20398;-83
2021/01/05 09:12:20;;;;;;;8.07;5.53;;;21.40;99.90;;;;;;5051165;28;20382;-85
2021/01/05 09:14:47;;;;;;;10.15;5.28;;;21.40;99.90;;;;;;5067897;28;20385;-84
2021/01/05 09:17:16;;;;;;;10.68;5.57;;;21.40;99.90;;;;;;5055750;28;20380;-85
2021/01/05 09:19:43;;;;;;;8.32;5.47;;;21.30;99.90;;;;;;5057476;28;20390;-84
2021/01/05 09:22:10;;;;;;;10.65;5.32;;;21.30;99.90;;;;;;5059637;28;20914;-85
2021/01/05 09:24:37;;;;;;;11.65;5.07;;;21.20;99.90;;;;;;5056088;28;20380;-84
2021/01/05 09:27:04;;;;;;;8.80;4.50;;;21.20;99.90;;;;;;5078246;28;20384;-85
2021/01/05 09:29:32;;;;;;;12.60;5.87;;;21.20;99.90;;;;;;5061820;28;20425;-85
2021/01/05 09:31:59;;;;;;;8.25;5.60;;;21.10;99.90;;;;;;5056738;28;20398;-85
2021/01/05 09:34:26;;;;;;;7.95;5.25;;;21.10;99.90;;;;;;5071903;28;20689;-85
2021/01/05 09:36:53;;;;;;;11.20;5.10;;;21.10;99.90;;;;;;5087401;28;20461;-84
2021/01/05 09:39:24;;;;;;;11.82;5.60;;;21.10;99.90;;;;;;5068764;28;20794;-85
2021/01/05 09:42:00;;;;;;;8.00;5.03;;;21.00;99.90;;;;;;5064964;28;20893;-86
2021/01/05 09:44:27;;;;;;;8.20;5.20;;;21.00;99.90;;;;;;5066591;28;20388;-85
2021/01/05 09:47:02;;;;;;;9.80;5.70;;;21.00;99.90;;;;;;5066446;28;20817;-86
2021/01/05 09:49:30;;;;;;;9.82;5.78;;;21.10;99.90;;;;;;5064459;28;20385;-85
2021/01/05 09:51:59;;;;;;;10.05;5.40;;;21.20;99.90;;;;;;5046581;28;20367;-87
2021/01/05 09:54:30;;;;;;;7.22;5.13;;;21.20;99.90;;;;;;5047160;28;20766;-85
2021/01/05 09:56:58;;;;;;;10.52;5.55;;;21.20;99.90;;;;;;5036866;28;20878;-87
2021/01/05 09:59:26;;;;;;;10.98;5.75;;;21.10;99.90;;;;;;5066683;28;20468;-86
2021/01/05 10:01:55;;;;;;;7.18;4.72;;;21.10;99.90;;;;;;5053437;28;20368;-86
2021/01/05 10:04:23;;;;;;;7.82;5.40;;;21.10;99.90;;;;;;5046409;28;20380;-88
2021/01/05 10:06:51;;;;;;;9.95;5.10;;;21.00;99.90;;;;;;5062124;28;20429;-87
2021/01/05 10:09:18;;;;;;;11.82;6.15;;;21.00;99.90;;;;;;5049629;28;20863;-88
2021/01/05 10:11:47;;;;;;;10.57;5.40;;;21.00;99.90;;;;;;5049334;28;20386;-85
2021/01/05 10:14:17;;;;;;;10.45;5.70;;;20.90;99.90;;;;;;5065873;28;20406;-86
2021/01/05 10:16:44;;;;;;;12.07;5.50;;;20.90;99.90;;;;;;5062899;28;20414;-86
2021/01/05 10:19:13;;;;;;;5.73;4.60;;;21.00;99.90;;;;;;5057027;28;20380;-86
2021/01/05 10:21:42;;;;;;;6.95;5.30;;;20.90;99.90;;;;;;5048706;28;20422;-86
2021/01/05 10:24:12;;;;;;;9.83;4.90;;;20.90;99.90;;;;;;5049636;28;20414;-87
2021/01/05 10:26:39;;;;;;;5.68;4.13;;;20.90;99.90;;;;;;5046379;28;20380;-86
2021/01/05 10:29:07;;;;;;;5.20;4.30;;;20.90;99.90;;;;;;5047095;28;20394;-86
2021/01/05 10:31:46;;;;;;;6.30;3.88;;;21.00;99.90;;;;;;5057480;28;20550;-86
2021/01/05 10:37:05;;;;;;;9.10;4.63;;;21.20;99.90;;;;;;5060984;28;20385;-86
2021/01/05 10:39:35;;;;;;;10.03;5.20;;;21.30;99.90;;;;;;5059997;28;20394;-87
2021/01/05 10:42:04;;;;;;;8.45;4.90;;;21.20;99.90;;;;;;5046792;28;20783;-87
2021/01/05 10:44:31;;;;;;;6.53;4.80;;;21.40;99.90;;;;;;5046901;28;20395;-88
2021/01/05 10:47:04;;;;;;;8.50;5.03;;;21.30;99.90;;;;;;5046111;28;20911;-86
2021/01/05 10:49:31;;;;;;;8.43;4.90;;;21.10;99.90;;;;;;5053773;28;20402;-87
2021/01/05 10:52:04;;;;;;;8.82;5.22;;;21.10;99.90;;;;;;5056968;28;20480;-87
2021/01/05 10:54:34;;;;;;;9.88;5.45;;;21.00;99.90;;;;;;5058107;28;20452;-87
2021/01/05 10:57:06;;;;;;;7.72;5.20;;;21.10;99.90;;;;;;5062545;28;20852;-86
2021/01/05 10:59:36;;;;;;;7.18;4.50;;;21.10;99.90;;;;;;5069563;28;20389;-87
2021/01/05 11:02:13;;;;;;;7.72;4.05;;;21.10;99.90;;;;;;5069900;28;21093;-86
2021/01/05 11:04:42;;;;;;;7.55;4.20;;;20.90;99.90;;;;;;5069830;28;20371;-87
2021/01/05 11:07:14;;;;;;;6.57;3.38;;;21.10;99.90;;;;;;5063445;28;20443;-88
2021/01/05 11:09:42;;;;;;;7.30;3.47;;;21.10;99.90;;;;;;5058251;28;20388;-87
2021/01/05 11:12:12;;;;;;;8.77;3.70;;;21.20;99.90;;;;;;5051770;28;20370;-87
2021/01/05 11:14:45;;;;;;;6.35;4.20;;;21.20;99.90;;;;;;5070499;28;20417;-87
2021/01/05 11:17:15;;;;;;;8.13;4.80;;;21.30;99.90;;;;;;5069930;28;20396;-88
2021/01/05 11:19:43;;;;;;;10.97;6.80;;;21.30;99.90;;;;;;5069539;28;20396;-86
2021/01/05 11:22:15;;;;;;;13.77;6.80;;;21.30;99.90;;;;;;5068709;28;20435;-87
2021/01/05 11:24:42;;;;;;;16.70;10.00;;;21.20;99.90;;;;;;5066303;28;20462;-87
2021/01/05 11:27:10;;;;;;;14.13;9.00;;;21.20;99.90;;;;;;5071783;28;20381;-87
2021/01/05 11:29:37;;;;;;;20.98;10.65;;;21.20;99.90;;;;;;5072556;28;20469;-88
2021/01/05 11:32:11;;;;;;;18.15;9.90;;;21.20;99.90;;;;;;5071376;28;20382;-87
2021/01/05 11:34:39;;;;;;;23.70;10.68;;;21.20;99.90;;;;;;5070121;28;20774;-88
2021/01/05 11:37:11;;;;;;;17.15;11.25;;;21.20;99.90;;;;;;5071288;28;20889;-87
2021/01/05 11:39:42;;;;;;;25.02;12.05;;;21.10;99.90;;;;;;5070929;28;20394;-87
2021/01/05 11:42:11;;;;;;;18.98;10.98;;;21.20;99.90;;;;;;5071521;28;20425;-87
2021/01/05 11:44:39;;;;;;;17.05;9.07;;;21.20;99.90;;;;;;5071285;28;20473;-87
2021/01/05 11:47:06;;;;;;;18.67;9.93;;;21.20;99.90;;;;;;5072125;28;20439;-88
2021/01/05 11:49:34;;;;;;;17.23;8.80;;;21.20;99.90;;;;;;5053921;28;20382;-87
2021/01/05 11:52:01;;;;;;;17.85;9.65;;;21.20;99.90;;;;;;5070802;28;20779;-87
2021/01/05 11:54:28;;;;;;;17.38;9.52;;;21.10;99.90;;;;;;5071946;28;20459;-87
2021/01/05 11:56:56;;;;;;;18.70;11.10;;;21.00;99.90;;;;;;5068687;28;20383;-86
2021/01/05 11:59:24;;;;;;;17.73;9.55;;;21.00;99.90;;;;;;5070308;28;20389;-86
2021/01/05 12:01:52;;;;;;;18.80;10.43;;;20.90;99.90;;;;;;5072209;28;20411;-85
2021/01/05 12:04:19;;;;;;;14.02;7.65;;;20.90;99.90;;;;;;5067400;28;20425;-90
2021/01/05 12:06:53;;;;;;;9.15;3.10;;;21.00;99.90;;;;;;5067908;28;20386;-86
2021/01/05 12:09:26;;;;;;;3.13;1.33;;;20.50;99.90;;;;;;5064201;28;20394;-94
2021/01/05 12:12:06;;;;;;;5.32;2.20;;;19.20;99.90;;;;;;5064686;28;20401;-83
2021/01/05 12:14:34;;;;;;;9.15;3.20;;;18.50;99.90;;;;;;5069956;28;20892;-83
2021/01/05 12:17:03;;;;;;;6.55;3.28;;;18.20;99.90;;;;;;5069238;28;20398;-83
2021/01/05 12:19:33;;;;;;;3.78;3.10;;;18.10;99.90;;;;;;5069571;28;20386;-82
2021/01/05 12:22:06;;;;;;;5.75;3.13;;;18.10;99.90;;;;;;5068581;28;20394;-82
2021/01/05 12:24:33;;;;;;;9.02;4.45;;;18.10;99.90;;;;;;5070203;28;20400;-85
2021/01/05 12:27:02;;;;;;;4.88;3.50;;;18.10;99.90;;;;;;5071250;28;20415;-82
2021/01/05 12:29:32;;;;;;;5.10;3.10;;;18.20;99.90;;;;;;5069498;28;20398;-82
2021/01/05 12:32:00;;;;;;;3.03;2.60;;;18.30;99.90;;;;;;5069043;28;20821;-82
2021/01/05 12:34:31;;;;;;;9.30;3.47;;;18.40;99.90;;;;;;5065457;28;20454;-83
2021/01/05 12:37:06;;;;;;;6.95;4.20;;;18.40;99.90;;;;;;5065711;28;20477;-89
2021/01/05 12:39:34;;;;;;;5.13;3.58;;;18.30;99.90;;;;;;5065726;28;20401;-87
2021/01/05 12:42:08;;;;;;;5.75;3.20;;;18.20;99.90;;;;;;5067580;28;20841;-82
2021/01/05 12:44:35;;;;;;;4.60;2.33;;;18.10;99.90;;;;;;5068836;28;21005;-83
2021/01/05 12:47:03;;;;;;;6.63;3.80;;;18.00;99.90;;;;;;5070366;28;20455;-81
2021/01/05 12:49:30;;;;;;;5.20;3.95;;;18.10;99.90;;;;;;5069347;28;20481;-81
2021/01/05 12:51:57;;;;;;;6.03;3.78;;;18.20;99.90;;;;;;5070267;28;20781;-81
2021/01/05 12:54:26;;;;;;;6.22;4.18;;;18.20;99.90;;;;;;5070581;28;20497;-81
2021/01/05 12:56:56;;;;;;;6.68;4.43;;;18.20;99.90;;;;;;5068680;28;20730;-82
2021/01/05 12:59:23;;;;;;;13.43;5.57;;;18.20;99.90;;;;;;5060051;28;20390;-82
2021/01/05 13:02:03;;;;;;;12.88;5.45;;;18.10;99.90;;;;;;5070713;28;20378;-82
2021/01/05 13:04:30;;;;;;;15.95;5.50;;;18.20;99.90;;;;;;5064721;28;20476;-82
2021/01/05 13:06:57;;;;;;;25.67;5.80;;;18.20;99.90;;;;;;5070001;28;20401;-82
2021/01/05 13:09:26;;;;;;;22.75;5.55;;;18.30;99.90;;;;;;5067371;28;20394;-81
2021/01/05 13:11:53;;;;;;;19.88;5.15;;;18.40;99.90;;;;;;5069758;28;20397;-82
2021/01/05 13:14:22;;;;;;;23.60;5.57;;;18.30;99.90;;;;;;5068368;28;20403;-81